createdAt,value
2022-10-26T00:00:28.414Z,4.80
2022-10-26T00:09:20.784Z,4.70
2022-10-26T00:33:53.448Z,4.70
2022-10-26T00:37:08.746Z,4.60
2022-10-26T00:55:46.353Z,4.50
2022-10-26T01:11:54.278Z,4.60
2022-10-26T01:25:11.482Z,4.60
2022-10-26T01:31:19.453Z,4.60
2022-10-26T02:26:38.048Z,4.10
2022-10-26T03:25:23.479Z,3.80
2022-10-26T03:28:04.421Z,3.90
2022-10-26T03:31:01.176Z,3.80
2022-10-26T03:33:30.557Z,3.80
2022-10-26T03:36:33.605Z,3.70
2022-10-26T03:39:04.275Z,3.80
2022-10-26T03:41:35.207Z,3.80
2022-10-26T03:44:03.504Z,3.70
2022-10-26T03:46:33.980Z,3.80
2022-10-26T03:49:04.982Z,3.70
2022-10-26T03:51:33.429Z,3.80
2022-10-26T03:54:24.511Z,3.80
2022-10-26T03:59:59.092Z,3.70
2022-10-26T04:02:35.296Z,3.70
2022-10-26T04:05:07.364Z,3.60
2022-10-26T04:07:35.972Z,3.70
2022-10-26T04:10:07.221Z,3.60
2022-10-26T04:12:40.479Z,3.60
2022-10-26T04:15:14.105Z,3.60
2022-10-26T04:17:42.544Z,3.60
2022-10-26T04:23:09.548Z,3.60
2022-10-26T04:29:10.678Z,3.70
2022-10-26T04:43:44.042Z,4.10
2022-10-26T04:58:29.192Z,4.10
2022-10-26T05:01:13.722Z,4.00
2022-10-26T05:04:01.730Z,4.00
2022-10-26T05:06:33.798Z,4.10
2022-10-26T05:12:07.907Z,3.90
2022-10-26T05:14:36.374Z,3.90
2022-10-26T05:17:17.820Z,3.80
2022-10-26T05:23:05.711Z,3.80
2022-10-26T05:25:53.677Z,3.70
2022-10-26T05:28:56.452Z,3.70
2022-10-26T05:31:26.029Z,3.70
2022-10-26T05:33:55.782Z,3.60
2022-10-26T05:44:14.350Z,3.60
2022-10-26T05:47:06.085Z,3.70
2022-10-26T05:49:35.990Z,3.70
2022-10-26T06:22:58.503Z,4.90
2022-10-26T06:50:25.715Z,5.80
2022-10-26T06:56:07.691Z,5.90
2022-10-26T06:58:52.297Z,5.90
2022-10-26T07:01:23.318Z,5.90
2022-10-26T07:28:28.244Z,7.30
2022-10-26T07:30:56.455Z,8.30
2022-10-26T07:33:26.933Z,8.90
2022-10-26T07:35:56.709Z,9.50
2022-10-26T07:38:24.903Z,9.70
2022-10-26T07:40:54.401Z,9.80
2022-10-26T07:43:25.088Z,10.20
2022-10-26T07:45:53.158Z,10.90
2022-10-26T07:48:21.327Z,11.40
2022-10-26T07:50:49.429Z,11.80
2022-10-26T07:53:19.091Z,12.30
2022-10-26T07:55:54.904Z,12.60
2022-10-26T07:58:26.033Z,12.80
2022-10-26T08:00:55.305Z,12.90
2022-10-26T08:03:23.856Z,13.00
2022-10-26T08:05:55.869Z,13.40
2022-10-26T08:08:25.540Z,13.60
2022-10-26T08:10:53.995Z,13.90
2022-10-26T08:13:22.158Z,14.10
2022-10-26T08:15:50.283Z,14.30
2022-10-26T08:18:18.453Z,14.40
2022-10-26T08:20:46.624Z,14.40
2022-10-26T08:23:14.794Z,14.60
2022-10-26T08:25:44.356Z,14.80
2022-10-26T08:28:12.479Z,15.00
2022-10-26T08:30:43.494Z,15.30
2022-10-26T08:33:12.761Z,15.40
2022-10-26T08:35:40.999Z,15.60
2022-10-26T08:38:09.283Z,16.10
2022-10-26T08:40:40.686Z,16.50
2022-10-26T08:43:18.242Z,16.50
2022-10-26T08:45:52.658Z,16.40
2022-10-26T08:48:25.204Z,16.40
2022-10-26T08:50:56.062Z,16.40
2022-10-26T08:53:31.726Z,16.30
2022-10-26T08:56:05.162Z,16.00
2022-10-26T08:58:39.964Z,15.40
2022-10-26T09:01:10.521Z,15.00
2022-10-26T09:03:38.790Z,14.50
2022-10-26T09:06:16.725Z,14.20
2022-10-26T09:08:55.098Z,14.10
2022-10-26T09:11:37.784Z,14.50
2022-10-26T09:14:17.176Z,15.00
2022-10-26T09:16:58.661Z,15.50
2022-10-26T09:19:56.511Z,15.70
2022-10-26T09:22:28.501Z,15.90
2022-10-26T09:24:58.188Z,16.00
2022-10-26T09:27:29.230Z,16.30
2022-10-26T09:30:04.338Z,16.20
2022-10-26T09:32:38.352Z,15.70
2022-10-26T09:35:15.206Z,15.40
2022-10-26T09:37:48.642Z,15.30
2022-10-26T09:40:23.888Z,15.40
2022-10-26T09:42:58.704Z,15.30
2022-10-26T09:45:32.536Z,15.50
2022-10-26T09:48:07.436Z,16.00
2022-10-26T09:50:38.164Z,15.90
2022-10-26T09:53:06.492Z,15.70
2022-10-26T09:55:40.535Z,15.60
2022-10-26T09:58:16.749Z,15.50
2022-10-26T10:00:47.322Z,15.40
2022-10-26T10:03:21.170Z,15.40
2022-10-26T10:05:52.233Z,15.40
2022-10-26T10:08:23.358Z,15.40
2022-10-26T10:11:00.579Z,15.50
2022-10-26T10:13:31.345Z,15.60
2022-10-26T10:16:06.392Z,15.60
2022-10-26T10:18:36.242Z,15.60
2022-10-26T10:21:06.109Z,15.60
2022-10-26T10:23:36.297Z,15.60
2022-10-26T10:26:11.267Z,15.60
2022-10-26T10:28:41.135Z,15.50
2022-10-26T10:31:21.939Z,15.50
2022-10-26T10:33:50.440Z,15.60
2022-10-26T10:36:21.180Z,15.80
2022-10-26T10:38:51.797Z,15.90
2022-10-26T10:41:28.083Z,16.10
2022-10-26T10:44:07.033Z,16.40
2022-10-26T10:46:37.821Z,16.60
2022-10-26T10:49:08.252Z,16.70
2022-10-26T10:51:41.380Z,17.00
2022-10-26T10:54:23.506Z,17.00
2022-10-26T10:56:54.539Z,17.00
2022-10-26T10:59:51.044Z,16.80
2022-10-26T11:02:46.370Z,16.70
2022-10-26T11:05:31.854Z,16.90
2022-10-26T11:08:07.395Z,16.90
2022-10-26T11:10:39.551Z,17.10
2022-10-26T11:13:18.380Z,17.10
2022-10-26T11:15:49.903Z,17.00
2022-10-26T11:18:23.689Z,17.00
2022-10-26T11:23:33.224Z,17.20
2022-10-26T11:26:10.414Z,17.20
2022-10-26T11:28:45.963Z,17.20
2022-10-26T11:31:19.735Z,17.00
2022-10-26T11:33:59.087Z,16.90
2022-10-26T11:36:30.789Z,16.80
2022-10-26T11:39:08.199Z,16.80
2022-10-26T11:41:41.957Z,16.90
2022-10-26T11:44:16.964Z,16.90
2022-10-26T11:46:52.052Z,16.80
2022-10-26T11:49:25.988Z,16.70
2022-10-26T11:52:00.485Z,16.70
2022-10-26T11:54:34.643Z,16.60
2022-10-26T11:57:05.376Z,16.50
2022-10-26T11:59:41.817Z,16.60
2022-10-26T12:02:17.659Z,16.60
2022-10-26T12:04:53.801Z,16.70
2022-10-26T12:07:28.907Z,16.70
2022-10-26T12:09:59.441Z,16.70
2022-10-26T12:12:37.575Z,16.60
2022-10-26T12:15:19.504Z,16.60
2022-10-26T12:17:53.163Z,16.50
2022-10-26T12:20:51.496Z,16.60
2022-10-26T12:23:34.045Z,16.50
2022-10-26T12:26:49.446Z,16.50
2022-10-26T12:29:41.921Z,16.40
2022-10-26T12:32:55.974Z,16.50
2022-10-26T12:35:36.935Z,16.40
2022-10-26T12:38:50.476Z,16.30
2022-10-26T12:41:25.655Z,16.30
2022-10-26T12:44:07.551Z,16.30
2022-10-26T12:46:42.240Z,16.30
2022-10-26T12:50:01.145Z,16.20
2022-10-26T12:52:49.432Z,16.30
2022-10-26T12:55:52.275Z,16.30
2022-10-26T12:58:52.035Z,16.30
2022-10-26T13:01:47.486Z,16.30
2022-10-26T13:04:54.849Z,16.20
2022-10-26T13:07:25.429Z,16.10
2022-10-26T13:10:00.669Z,16.00
2022-10-26T13:12:37.072Z,16.00
2022-10-26T13:15:19.745Z,15.80
2022-10-26T13:17:59.418Z,15.60
2022-10-26T13:20:28.300Z,15.40
2022-10-26T13:22:56.661Z,15.30
2022-10-26T13:25:27.677Z,15.10
2022-10-26T13:28:06.194Z,15.00
2022-10-26T13:30:49.007Z,14.90
2022-10-26T13:33:34.919Z,14.80
2022-10-26T13:36:07.670Z,14.80
2022-10-26T13:38:38.850Z,14.80
2022-10-26T13:41:12.643Z,14.70
2022-10-26T13:43:41.702Z,14.70
2022-10-26T13:46:24.367Z,14.60
2022-10-26T13:48:54.877Z,14.50
2022-10-26T13:51:25.839Z,14.50
2022-10-26T13:53:59.000Z,14.40
2022-10-26T13:56:32.909Z,14.30
2022-10-26T13:59:04.156Z,14.30
2022-10-26T14:01:34.554Z,14.20
2022-10-26T14:04:17.516Z,14.30
2022-10-26T14:06:50.144Z,14.20
2022-10-26T14:09:20.057Z,14.10
2022-10-26T14:11:52.124Z,14.00
2022-10-26T14:14:24.448Z,14.00
2022-10-26T14:16:55.312Z,13.90
2022-10-26T14:19:28.761Z,13.90
2022-10-26T14:21:57.856Z,13.90
2022-10-26T14:24:45.665Z,13.80
2022-10-26T14:27:17.690Z,13.80
2022-10-26T14:29:58.322Z,13.70
2022-10-26T14:32:36.852Z,13.70
2022-10-26T14:35:05.611Z,13.80
2022-10-26T14:37:41.601Z,13.90
2022-10-26T14:40:17.590Z,13.90
2022-10-26T14:42:50.769Z,14.00
2022-10-26T14:45:43.351Z,13.90
2022-10-26T14:48:24.022Z,13.90
2022-10-26T14:51:09.801Z,13.80
2022-10-26T14:53:42.520Z,13.70
2022-10-26T14:56:23.084Z,13.50
2022-10-26T14:58:51.737Z,13.40
2022-10-26T15:01:32.061Z,13.20
2022-10-26T15:04:07.317Z,13.10
2022-10-26T15:06:44.160Z,13.00
2022-10-26T15:09:33.510Z,12.90
2022-10-26T15:12:03.222Z,12.90
2022-10-26T15:14:32.119Z,12.90
2022-10-26T15:17:01.157Z,12.90
2022-10-26T15:19:31.167Z,12.90
2022-10-26T15:22:00.172Z,12.80
2022-10-26T15:24:38.668Z,12.70
2022-10-26T15:27:15.981Z,12.60
2022-10-26T15:29:45.909Z,12.40
2022-10-26T15:32:25.598Z,12.30
2022-10-26T15:37:50.103Z,12.20
2022-10-26T15:40:18.732Z,12.10
2022-10-26T15:42:50.797Z,12.10
2022-10-26T15:45:22.167Z,12.00
2022-10-26T15:47:52.090Z,12.00
2022-10-26T15:50:25.424Z,12.00
2022-10-26T15:53:00.908Z,11.90
2022-10-26T15:55:32.163Z,11.90
2022-10-26T15:58:06.491Z,12.00
2022-10-26T16:00:35.214Z,12.00
2022-10-26T16:03:04.700Z,12.00
2022-10-26T16:05:33.571Z,12.00
2022-10-26T16:08:03.928Z,12.00
2022-10-26T16:10:32.687Z,12.00
2022-10-26T16:13:01.585Z,11.90
2022-10-26T16:15:30.451Z,11.90
2022-10-26T16:17:58.909Z,11.80
2022-10-26T16:20:28.584Z,11.70
2022-10-26T16:22:57.211Z,11.70
2022-10-26T16:25:29.029Z,11.60
2022-10-26T16:27:59.413Z,11.50
2022-10-26T16:30:30.419Z,11.50
2022-10-26T16:33:02.209Z,11.40
2022-10-26T16:35:30.648Z,11.30
2022-10-26T16:37:59.432Z,11.20
2022-10-26T16:40:32.436Z,11.20
2022-10-26T16:43:00.988Z,11.20
2022-10-26T16:45:32.678Z,11.20
2022-10-26T16:48:05.925Z,11.10
2022-10-26T16:50:37.952Z,11.10
2022-10-26T16:53:06.528Z,11.10
2022-10-26T16:55:36.598Z,11.10
2022-10-26T16:58:05.892Z,11.00
2022-10-26T17:00:37.397Z,11.00
2022-10-26T17:03:09.095Z,11.00
2022-10-26T17:05:37.851Z,11.00
2022-10-26T17:08:08.592Z,11.10
2022-10-26T17:10:38.645Z,11.10
2022-10-26T17:13:07.451Z,11.10
2022-10-26T17:15:36.179Z,11.20
2022-10-26T17:18:05.116Z,11.20
2022-10-26T17:20:34.041Z,11.20
2022-10-26T17:23:02.913Z,11.20
2022-10-26T17:25:31.876Z,11.30
2022-10-26T17:28:02.203Z,11.30
2022-10-26T17:30:35.008Z,11.30
2022-10-26T17:33:03.848Z,11.40
2022-10-26T17:35:33.989Z,11.40
2022-10-26T17:38:03.701Z,11.40
2022-10-26T17:40:35.696Z,11.40
2022-10-26T17:43:05.875Z,11.30
2022-10-26T17:45:34.602Z,11.30
2022-10-26T17:48:03.569Z,11.20
2022-10-26T17:50:38.587Z,11.20
2022-10-26T17:53:07.784Z,11.10
2022-10-26T17:55:36.539Z,11.10
2022-10-26T17:58:07.168Z,11.20
2022-10-26T18:00:36.499Z,11.20
2022-10-26T18:03:10.720Z,11.20
2022-10-26T18:05:45.342Z,11.30
2022-10-26T18:08:18.013Z,11.30
2022-10-26T18:10:49.933Z,11.20
2022-10-26T18:13:20.903Z,11.20
2022-10-26T18:15:49.780Z,11.20
2022-10-26T18:18:22.085Z,11.20
2022-10-26T18:20:56.875Z,11.20
2022-10-26T18:23:28.383Z,11.10
2022-10-26T18:26:11.384Z,11.20
2022-10-26T18:28:43.433Z,11.10
2022-10-26T18:31:14.000Z,11.10
2022-10-26T18:33:42.643Z,11.00
2022-10-26T18:36:13.628Z,11.00
2022-10-26T18:38:42.757Z,11.00
2022-10-26T18:41:13.204Z,10.90
2022-10-26T18:43:44.297Z,10.90
2022-10-26T18:46:17.653Z,10.90
2022-10-26T18:48:49.504Z,10.90
2022-10-26T18:51:29.139Z,11.00
2022-10-26T18:53:58.881Z,11.00
2022-10-26T18:56:27.888Z,11.10
2022-10-26T18:59:00.134Z,11.20
2022-10-26T19:01:30.985Z,11.20
2022-10-26T19:04:01.472Z,11.30
2022-10-26T19:06:31.723Z,11.40
2022-10-26T19:09:00.580Z,11.40
2022-10-26T19:11:33.778Z,11.40
2022-10-26T19:14:06.980Z,11.40
2022-10-26T19:16:50.854Z,11.50
2022-10-26T19:19:20.585Z,11.60
2022-10-26T19:21:50.841Z,11.70
2022-10-26T19:24:21.268Z,11.70
2022-10-26T19:26:51.649Z,11.70
2022-10-26T19:29:22.344Z,11.70
2022-10-26T19:31:53.560Z,11.70
2022-10-26T19:34:23.085Z,11.70
2022-10-26T19:36:52.656Z,11.70
2022-10-26T19:39:24.768Z,11.70
2022-10-26T19:42:02.512Z,11.80
2022-10-26T19:44:35.652Z,11.80
2022-10-26T19:47:05.319Z,11.80
2022-10-26T19:49:33.748Z,11.80
2022-10-26T19:52:02.895Z,11.90
2022-10-26T19:54:31.352Z,11.90
2022-10-26T19:57:02.448Z,11.90
2022-10-26T19:59:31.053Z,11.90
2022-10-26T20:02:01.286Z,11.80
2022-10-26T20:04:29.720Z,11.80
2022-10-26T20:06:58.090Z,11.70
2022-10-26T20:09:27.629Z,11.80
2022-10-26T20:11:56.212Z,11.70
2022-10-26T20:14:24.596Z,11.80
2022-10-26T20:16:55.977Z,11.70
2022-10-26T20:19:26.067Z,11.80
2022-10-26T20:21:54.451Z,11.70
2022-10-26T20:24:23.158Z,11.70
2022-10-26T20:26:51.657Z,11.60
2022-10-26T20:29:22.055Z,11.60
2022-10-26T20:31:55.169Z,11.50
2022-10-26T20:34:25.883Z,11.50
2022-10-26T20:36:54.314Z,11.40
2022-10-26T20:39:24.082Z,11.40
2022-10-26T20:41:56.240Z,11.30
2022-10-26T20:44:29.702Z,11.20
2022-10-26T20:46:58.617Z,11.10
2022-10-26T20:49:29.274Z,11.10
2022-10-26T20:52:21.912Z,11.10
2022-10-26T20:54:55.773Z,11.10
2022-10-26T20:57:30.496Z,11.10
2022-10-26T21:00:04.269Z,11.10
2022-10-26T21:02:33.043Z,11.10
2022-10-26T21:05:03.205Z,11.10
2022-10-26T21:07:31.643Z,11.00
2022-10-26T21:09:59.895Z,11.00
2022-10-26T21:12:28.329Z,11.10
2022-10-26T21:14:56.640Z,11.10
2022-10-26T21:17:25.108Z,11.00
2022-10-26T21:19:53.629Z,11.10
2022-10-26T21:22:23.545Z,11.10
2022-10-26T21:24:51.989Z,11.10
2022-10-26T21:27:20.388Z,11.10
2022-10-26T21:29:48.752Z,11.00
2022-10-26T21:32:17.147Z,10.90
2022-10-26T21:34:45.432Z,10.90
2022-10-26T21:37:13.788Z,10.90
2022-10-26T21:39:43.552Z,10.90
2022-10-26T21:42:11.888Z,10.90
2022-10-26T21:44:41.582Z,10.80
2022-10-26T21:47:10.635Z,10.80
2022-10-26T21:52:08.593Z,10.70
2022-10-26T21:54:37.298Z,10.80
2022-10-26T21:57:07.073Z,10.90
2022-10-26T21:59:35.608Z,11.00
2022-10-26T22:02:04.069Z,11.10
2022-10-26T22:04:33.100Z,11.20
2022-10-26T22:07:01.588Z,11.20
2022-10-26T22:09:29.857Z,11.30
2022-10-26T22:11:58.213Z,11.30
2022-10-26T22:14:29.107Z,11.30
2022-10-26T22:16:58.173Z,11.30
2022-10-26T22:19:26.701Z,11.30
2022-10-26T22:21:55.121Z,11.40
2022-10-26T22:24:23.453Z,11.40
2022-10-26T22:26:51.807Z,11.40
2022-10-26T22:29:20.327Z,11.40
2022-10-26T22:31:51.056Z,11.40
2022-10-26T22:34:19.409Z,11.40
2022-10-26T22:36:47.796Z,11.40
2022-10-26T22:39:17.988Z,11.30
2022-10-26T22:41:46.346Z,11.30
2022-10-26T22:44:14.657Z,11.30
2022-10-26T22:46:42.930Z,11.30
2022-10-26T22:49:14.310Z,11.20
2022-10-26T22:51:42.664Z,11.20
2022-10-26T22:54:13.097Z,11.30
2022-10-26T22:56:41.473Z,11.30
2022-10-26T22:59:09.929Z,11.30
2022-10-26T23:01:41.990Z,11.30
2022-10-26T23:04:13.881Z,11.20
2022-10-26T23:06:42.938Z,11.10
2022-10-26T23:09:11.338Z,11.00
2022-10-26T23:11:39.692Z,10.90
2022-10-26T23:14:08.121Z,10.70
2022-10-26T23:16:36.565Z,10.50
2022-10-26T23:19:04.947Z,10.40
2022-10-26T23:21:34.799Z,10.20
2022-10-26T23:24:04.159Z,10.10
2022-10-26T23:26:32.642Z,10.00
2022-10-26T23:29:01.227Z,9.90
2022-10-26T23:31:30.773Z,9.90
2022-10-26T23:34:00.193Z,9.80
2022-10-26T23:36:28.546Z,9.70
2022-10-26T23:38:59.261Z,9.70
2022-10-26T23:41:29.261Z,9.70
2022-10-26T23:43:57.863Z,9.60
2022-10-26T23:46:38.616Z,9.60
2022-10-26T23:49:07.543Z,9.50
2022-10-26T23:51:35.966Z,9.50
2022-10-26T23:54:05.986Z,9.60
2022-10-26T23:56:39.248Z,9.60
